sensor_id;sensor_type;location;lat;lon;timestamp;pressure;altitude;pressure_sealevel;temperature;humidity
40372;BME280;28564;53.346;-6.554;2022-07-17T00:01:52;101616.27;;;24.67;43.26
40372;BME280;28564;53.346;-6.554;2022-07-17T00:04:19;101618.34;;;24.55;43.12
40372;BME280;28564;53.346;-6.554;2022-07-17T00:06:46;101617.56;;;24.44;43.27
40372;BME280;28564;53.346;-6.554;2022-07-17T00:09:13;101617.86;;;24.34;43.46
40372;BME280;28564;53.346;-6.554;2022-07-17T00:11:40;101619.21;;;24.32;43.62
40372;BME280;28564;53.346;-6.554;2022-07-17T00:14:06;101616.10;;;24.37;43.53
40372;BME280;28564;53.346;-6.554;2022-07-17T00:16:34;101613.02;;;24.62;43.58
40372;BME280;28564;53.346;-6.554;2022-07-17T00:19:00;101607.43;;;24.27;43.80
40372;BME280;28564;53.346;-6.554;2022-07-17T00:21:27;101603.81;;;24.20;43.96
40372;BME280;28564;53.346;-6.554;2022-07-17T00:23:54;101598.61;;;24.45;44.03
40372;BME280;28564;53.346;-6.554;2022-07-17T00:26:21;101591.16;;;24.17;44.18
40372;BME280;28564;53.346;-6.554;2022-07-17T00:28:48;101582.03;;;24.13;44.24
40372;BME280;28564;53.346;-6.554;2022-07-17T00:31:15;101574.71;;;23.89;44.34
40372;BME280;28564;53.346;-6.554;2022-07-17T00:33:42;101575.06;;;24.13;44.45
40372;BME280;28564;53.346;-6.554;2022-07-17T00:36:09;101570.88;;;24.16;44.49
40372;BME280;28564;53.346;-6.554;2022-07-17T00:38:36;101569.72;;;24.18;44.59
40372;BME280;28564;53.346;-6.554;2022-07-17T00:41:03;101562.95;;;24.15;44.63
40372;BME280;28564;53.346;-6.554;2022-07-17T00:43:31;101556.51;;;24.08;44.72
40372;BME280;28564;53.346;-6.554;2022-07-17T00:46:02;101548.00;;;23.82;44.88
40372;BME280;28564;53.346;-6.554;2022-07-17T00:48:30;101548.88;;;24.02;45.00
40372;BME280;28564;53.346;-6.554;2022-07-17T00:50:58;101548.78;;;23.97;45.15
40372;BME280;28564;53.346;-6.554;2022-07-17T00:53:27;101543.18;;;23.93;45.26
40372;BME280;28564;53.346;-6.554;2022-07-17T00:55:55;101536.88;;;24.16;45.30
40372;BME280;28564;53.346;-6.554;2022-07-17T00:58:25;101531.30;;;24.11;45.39
40372;BME280;28564;53.346;-6.554;2022-07-17T01:00:55;101523.01;;;24.00;45.37
40372;BME280;28564;53.346;-6.554;2022-07-17T01:03:24;101516.48;;;24.11;45.46
40372;BME280;28564;53.346;-6.554;2022-07-17T01:05:52;101511.74;;;23.77;45.65
40372;BME280;28564;53.346;-6.554;2022-07-17T01:08:19;101504.68;;;23.37;45.85
40372;BME280;28564;53.346;-6.554;2022-07-17T01:10:46;101493.76;;;23.74;46.07
40372;BME280;28564;53.346;-6.554;2022-07-17T01:13:13;101489.17;;;23.39;46.20
40372;BME280;28564;53.346;-6.554;2022-07-17T01:15:42;101482.32;;;23.49;46.39
40372;BME280;28564;53.346;-6.554;2022-07-17T01:18:11;101481.02;;;23.39;46.55
40372;BME280;28564;53.346;-6.554;2022-07-17T01:20:41;101471.27;;;23.31;46.58
40372;BME280;28564;53.346;-6.554;2022-07-17T01:23:08;101463.94;;;23.23;46.63
40372;BME280;28564;53.346;-6.554;2022-07-17T01:25:35;101462.97;;;23.21;46.67
40372;BME280;28564;53.346;-6.554;2022-07-17T01:28:03;101461.05;;;23.22;46.65
40372;BME280;28564;53.346;-6.554;2022-07-17T01:30:31;101462.56;;;23.21;46.59
40372;BME280;28564;53.346;-6.554;2022-07-17T01:32:59;101476.38;;;23.25;46.65
40372;BME280;28564;53.346;-6.554;2022-07-17T01:35:26;101485.53;;;23.32;46.67
40372;BME280;28564;53.346;-6.554;2022-07-17T01:37:54;101483.48;;;23.38;46.60
40372;BME280;28564;53.346;-6.554;2022-07-17T01:40:21;101491.13;;;23.44;46.56
40372;BME280;28564;53.346;-6.554;2022-07-17T01:42:50;101490.34;;;23.57;46.35
40372;BME280;28564;53.346;-6.554;2022-07-17T01:45:18;101484.30;;;23.68;46.15
40372;BME280;28564;53.346;-6.554;2022-07-17T01:47:46;101473.84;;;23.54;45.98
40372;BME280;28564;53.346;-6.554;2022-07-17T01:50:14;101470.42;;;23.70;45.88
40372;BME280;28564;53.346;-6.554;2022-07-17T01:52:43;101471.58;;;23.64;45.95
40372;BME280;28564;53.346;-6.554;2022-07-17T01:55:13;101471.36;;;23.37;45.96
40372;BME280;28564;53.346;-6.554;2022-07-17T01:57:42;101471.19;;;23.32;45.99
40372;BME280;28564;53.346;-6.554;2022-07-17T02:00:12;101472.17;;;23.52;46.09
40372;BME280;28564;53.346;-6.554;2022-07-17T02:02:40;101477.16;;;23.55;46.19
40372;BME280;28564;53.346;-6.554;2022-07-17T02:05:07;101465.08;;;23.34;46.16
40372;BME280;28564;53.346;-6.554;2022-07-17T02:07:35;101470.50;;;23.54;46.19
40372;BME280;28564;53.346;-6.554;2022-07-17T02:10:02;101474.59;;;23.31;46.30
40372;BME280;28564;53.346;-6.554;2022-07-17T02:12:30;101472.79;;;23.62;46.27
40372;BME280;28564;53.346;-6.554;2022-07-17T02:14:56;101474.56;;;23.65;46.21
40372;BME280;28564;53.346;-6.554;2022-07-17T02:17:25;101481.45;;;23.70;46.22
40372;BME280;28564;53.346;-6.554;2022-07-17T02:19:51;101477.02;;;23.55;46.12
40372;BME280;28564;53.346;-6.554;2022-07-17T02:22:18;101478.93;;;23.58;45.94
40372;BME280;28564;53.346;-6.554;2022-07-17T02:24:45;101483.69;;;23.72;45.68
40372;BME280;28564;53.346;-6.554;2022-07-17T02:27:12;101485.33;;;23.55;45.55
40372;BME280;28564;53.346;-6.554;2022-07-17T02:29:39;101493.75;;;23.39;45.62
40372;BME280;28564;53.346;-6.554;2022-07-17T02:32:06;101494.08;;;23.29;45.73
40372;BME280;28564;53.346;-6.554;2022-07-17T02:34:33;101498.49;;;23.23;45.97
40372;BME280;28564;53.346;-6.554;2022-07-17T02:37:00;101503.82;;;23.16;45.92
40372;BME280;28564;53.346;-6.554;2022-07-17T02:39:27;101511.56;;;23.01;45.82
40372;BME280;28564;53.346;-6.554;2022-07-17T02:41:54;101511.53;;;22.85;45.95
40372;BME280;28564;53.346;-6.554;2022-07-17T02:44:27;101506.20;;;22.77;46.17
40372;BME280;28564;53.346;-6.554;2022-07-17T02:46:54;101508.89;;;22.72;46.16
40372;BME280;28564;53.346;-6.554;2022-07-17T02:49:22;101511.40;;;22.66;46.19
40372;BME280;28564;53.346;-6.554;2022-07-17T02:51:49;101515.60;;;22.56;46.32
40372;BME280;28564;53.346;-6.554;2022-07-17T02:54:16;101516.25;;;22.47;46.45
40372;BME280;28564;53.346;-6.554;2022-07-17T02:56:43;101517.48;;;22.70;46.52
40372;BME280;28564;53.346;-6.554;2022-07-17T02:59:10;101515.19;;;22.40;46.51
40372;BME280;28564;53.346;-6.554;2022-07-17T03:01:37;101516.65;;;22.63;46.44
40372;BME280;28564;53.346;-6.554;2022-07-17T03:04:04;101520.18;;;22.25;46.46
40372;BME280;28564;53.346;-6.554;2022-07-17T03:06:31;101522.25;;;22.42;46.56
40372;BME280;28564;53.346;-6.554;2022-07-17T03:08:58;101524.70;;;22.07;46.62
40372;BME280;28564;53.346;-6.554;2022-07-17T03:11:26;101527.02;;;22.25;46.70
40372;BME280;28564;53.346;-6.554;2022-07-17T03:13:54;101529.51;;;22.37;46.78
40372;BME280;28564;53.346;-6.554;2022-07-17T03:16:22;101524.73;;;21.80;46.87
40372;BME280;28564;53.346;-6.554;2022-07-17T03:18:49;101525.26;;;22.28;46.80
40372;BME280;28564;53.346;-6.554;2022-07-17T03:21:16;101522.98;;;22.26;46.75
40372;BME280;28564;53.346;-6.554;2022-07-17T03:23:43;101518.79;;;22.01;46.65
40372;BME280;28564;53.346;-6.554;2022-07-17T03:26:11;101510.04;;;21.96;46.58
40372;BME280;28564;53.346;-6.554;2022-07-17T03:28:38;101510.17;;;22.20;46.71
40372;BME280;28564;53.346;-6.554;2022-07-17T03:31:05;101507.09;;;22.19;46.58
40372;BME280;28564;53.346;-6.554;2022-07-17T03:33:32;101506.76;;;22.17;46.55
40372;BME280;28564;53.346;-6.554;2022-07-17T03:35:59;101507.85;;;22.20;46.61
40372;BME280;28564;53.346;-6.554;2022-07-17T03:38:26;101508.18;;;22.25;46.67
40372;BME280;28564;53.346;-6.554;2022-07-17T03:40:53;101506.66;;;22.10;46.65
40372;BME280;28564;53.346;-6.554;2022-07-17T03:43:20;101502.77;;;22.17;46.58
40372;BME280;28564;53.346;-6.554;2022-07-17T03:45:47;101500.93;;;22.22;46.52
40372;BME280;28564;53.346;-6.554;2022-07-17T03:48:14;101495.56;;;22.49;46.35
40372;BME280;28564;53.346;-6.554;2022-07-17T03:50:41;101497.50;;;22.01;46.21
40372;BME280;28564;53.346;-6.554;2022-07-17T03:53:09;101504.35;;;22.24;45.78
40372;BME280;28564;53.346;-6.554;2022-07-17T03:55:36;101518.81;;;22.14;44.79
40372;BME280;28564;53.346;-6.554;2022-07-17T03:58:04;101523.84;;;21.99;43.54
40372;BME280;28564;53.346;-6.554;2022-07-17T04:00:31;101523.51;;;21.95;43.03
40372;BME280;28564;53.346;-6.554;2022-07-17T04:02:57;101525.74;;;21.72;43.11
40372;BME280;28564;53.346;-6.554;2022-07-17T04:05:24;101526.24;;;21.58;42.83
40372;BME280;28564;53.346;-6.554;2022-07-17T04:07:51;101527.27;;;21.46;42.52
40372;BME280;28564;53.346;-6.554;2022-07-17T04:10:19;101522.51;;;21.36;42.17
40372;BME280;28564;53.346;-6.554;2022-07-17T04:12:45;101516.25;;;21.48;42.01
40372;BME280;28564;53.346;-6.554;2022-07-17T04:15:13;101517.32;;;21.20;42.09
40372;BME280;28564;53.346;-6.554;2022-07-17T04:17:40;101511.25;;;21.22;42.26
40372;BME280;28564;53.346;-6.554;2022-07-17T04:20:07;101507.10;;;21.44;42.25
40372;BME280;28564;53.346;-6.554;2022-07-17T04:22:34;101507.59;;;21.48;42.38
40372;BME280;28564;53.346;-6.554;2022-07-17T04:25:02;101508.03;;;21.35;42.45
40372;BME280;28564;53.346;-6.554;2022-07-17T04:27:29;101507.47;;;21.42;42.51
40372;BME280;28564;53.346;-6.554;2022-07-17T04:29:56;101505.70;;;21.44;42.61
40372;BME280;28564;53.346;-6.554;2022-07-17T04:32:23;101507.54;;;21.70;42.69
40372;BME280;28564;53.346;-6.554;2022-07-17T04:34:51;101508.30;;;21.55;42.79
40372;BME280;28564;53.346;-6.554;2022-07-17T04:37:18;101508.82;;;21.62;42.88
40372;BME280;28564;53.346;-6.554;2022-07-17T04:39:46;101509.66;;;21.69;42.94
40372;BME280;28564;53.346;-6.554;2022-07-17T04:42:12;101509.04;;;21.70;42.81
40372;BME280;28564;53.346;-6.554;2022-07-17T04:44:39;101506.89;;;21.68;42.74
40372;BME280;28564;53.346;-6.554;2022-07-17T04:47:12;101504.93;;;21.70;42.70
40372;BME280;28564;53.346;-6.554;2022-07-17T04:49:39;101507.34;;;21.72;42.70
40372;BME280;28564;53.346;-6.554;2022-07-17T04:52:07;101506.54;;;21.76;42.78
40372;BME280;28564;53.346;-6.554;2022-07-17T04:54:34;101503.02;;;21.80;42.77
40372;BME280;28564;53.346;-6.554;2022-07-17T04:57:01;101498.90;;;21.85;42.76
40372;BME280;28564;53.346;-6.554;2022-07-17T04:59:28;101498.88;;;21.91;42.76
40372;BME280;28564;53.346;-6.554;2022-07-17T05:01:55;101498.15;;;21.92;42.63
40372;BME280;28564;53.346;-6.554;2022-07-17T05:04:23;101491.02;;;21.89;42.59
40372;BME280;28564;53.346;-6.554;2022-07-17T05:06:50;101484.24;;;21.88;42.65
40372;BME280;28564;53.346;-6.554;2022-07-17T05:09:16;101475.04;;;21.87;42.77
40372;BME280;28564;53.346;-6.554;2022-07-17T05:11:44;101477.54;;;22.11;42.89
40372;BME280;28564;53.346;-6.554;2022-07-17T05:14:11;101476.90;;;21.92;43.00
40372;BME280;28564;53.346;-6.554;2022-07-17T05:16:38;101477.17;;;21.95;43.03
40372;BME280;28564;53.346;-6.554;2022-07-17T05:19:05;101471.50;;;21.76;43.08
40372;BME280;28564;53.346;-6.554;2022-07-17T05:21:32;101461.12;;;21.80;43.13
40372;BME280;28564;53.346;-6.554;2022-07-17T05:24:00;101455.68;;;21.99;43.20
40372;BME280;28564;53.346;-6.554;2022-07-17T05:26:27;101453.05;;;21.99;43.16
40372;BME280;28564;53.346;-6.554;2022-07-17T05:28:54;101446.12;;;22.01;43.12
40372;BME280;28564;53.346;-6.554;2022-07-17T05:31:21;101441.92;;;22.02;42.99
40372;BME280;28564;53.346;-6.554;2022-07-17T05:33:48;101439.56;;;22.01;42.97
40372;BME280;28564;53.346;-6.554;2022-07-17T05:36:16;101436.56;;;22.07;43.02
40372;BME280;28564;53.346;-6.554;2022-07-17T05:38:43;101435.78;;;22.14;42.96
40372;BME280;28564;53.346;-6.554;2022-07-17T05:41:10;101434.09;;;21.99;42.83
40372;BME280;28564;53.346;-6.554;2022-07-17T05:43:37;101430.45;;;22.09;42.65
40372;BME280;28564;53.346;-6.554;2022-07-17T05:46:04;101429.53;;;22.34;42.46
40372;BME280;28564;53.346;-6.554;2022-07-17T05:48:32;101429.97;;;22.40;42.37
40372;BME280;28564;53.346;-6.554;2022-07-17T05:50:59;101431.41;;;21.90;42.39
40372;BME280;28564;53.346;-6.554;2022-07-17T05:53:27;101434.89;;;22.43;42.51
40372;BME280;28564;53.346;-6.554;2022-07-17T05:55:54;101439.72;;;22.51;42.46
40372;BME280;28564;53.346;-6.554;2022-07-17T05:58:22;101445.75;;;22.32;42.43
40372;BME280;28564;53.346;-6.554;2022-07-17T06:00:49;101447.31;;;22.12;42.36
40372;BME280;28564;53.346;-6.554;2022-07-17T06:03:17;101446.39;;;22.70;42.37
40372;BME280;28564;53.346;-6.554;2022-07-17T06:05:45;101443.10;;;22.58;42.33
40372;BME280;28564;53.346;-6.554;2022-07-17T06:08:12;101444.54;;;22.67;42.33
40372;BME280;28564;53.346;-6.554;2022-07-17T06:10:39;101447.00;;;22.51;42.28
40372;BME280;28564;53.346;-6.554;2022-07-17T06:13:06;101447.30;;;22.62;42.23
40372;BME280;28564;53.346;-6.554;2022-07-17T06:15:34;101449.42;;;22.99;42.17
40372;BME280;28564;53.346;-6.554;2022-07-17T06:18:01;101455.03;;;22.79;42.14
40372;BME280;28564;53.346;-6.554;2022-07-17T06:20:28;101455.38;;;22.89;42.09
40372;BME280;28564;53.346;-6.554;2022-07-17T06:22:56;101452.38;;;22.92;41.91
40372;BME280;28564;53.346;-6.554;2022-07-17T06:25:24;101454.66;;;22.73;41.87
40372;BME280;28564;53.346;-6.554;2022-07-17T06:27:52;101462.04;;;23.02;41.82
40372;BME280;28564;53.346;-6.554;2022-07-17T06:30:20;101464.38;;;23.11;41.73
40372;BME280;28564;53.346;-6.554;2022-07-17T06:32:47;101466.10;;;23.14;41.69
40372;BME280;28564;53.346;-6.554;2022-07-17T06:35:14;101465.92;;;22.97;41.59
40372;BME280;28564;53.346;-6.554;2022-07-17T06:37:41;101463.28;;;23.26;41.51
40372;BME280;28564;53.346;-6.554;2022-07-17T06:40:09;101465.25;;;23.34;41.28
40372;BME280;28564;53.346;-6.554;2022-07-17T06:42:36;101469.24;;;23.15;41.11
40372;BME280;28564;53.346;-6.554;2022-07-17T06:45:03;101473.21;;;22.92;41.09
40372;BME280;28564;53.346;-6.554;2022-07-17T06:47:31;101477.50;;;23.46;41.16
40372;BME280;28564;53.346;-6.554;2022-07-17T06:49:59;101483.10;;;23.54;41.17
40372;BME280;28564;53.346;-6.554;2022-07-17T06:52:26;101483.74;;;23.11;41.16
40372;BME280;28564;53.346;-6.554;2022-07-17T06:54:53;101483.02;;;23.46;41.21
40372;BME280;28564;53.346;-6.554;2022-07-17T06:57:20;101489.86;;;23.63;41.23
40372;BME280;28564;53.346;-6.554;2022-07-17T06:59:46;101488.01;;;23.82;41.21
40372;BME280;28564;53.346;-6.554;2022-07-17T07:02:14;101481.13;;;23.70;41.11
40372;BME280;28564;53.346;-6.554;2022-07-17T07:04:41;101479.20;;;23.75;41.16
40372;BME280;28564;53.346;-6.554;2022-07-17T07:07:08;101481.64;;;23.80;41.21
40372;BME280;28564;53.346;-6.554;2022-07-17T07:09:35;101485.97;;;23.95;41.23
40372;BME280;28564;53.346;-6.554;2022-07-17T07:12:04;101489.44;;;23.87;41.03
40372;BME280;28564;53.346;-6.554;2022-07-17T07:14:31;101490.33;;;24.25;40.88
40372;BME280;28564;53.346;-6.554;2022-07-17T07:16:59;101490.82;;;24.40;40.69
40372;BME280;28564;53.346;-6.554;2022-07-17T07:19:26;101483.68;;;24.51;40.51
40372;BME280;28564;53.346;-6.554;2022-07-17T07:21:54;101481.81;;;24.52;40.45
40372;BME280;28564;53.346;-6.554;2022-07-17T07:24:21;101485.20;;;24.45;40.42
40372;BME280;28564;53.346;-6.554;2022-07-17T07:26:48;101485.63;;;24.38;40.44
40372;BME280;28564;53.346;-6.554;2022-07-17T07:29:15;101482.85;;;24.24;40.41
40372;BME280;28564;53.346;-6.554;2022-07-17T07:31:42;101485.22;;;24.11;40.46
40372;BME280;28564;53.346;-6.554;2022-07-17T07:34:09;101485.08;;;24.02;40.55
40372;BME280;28564;53.346;-6.554;2022-07-17T07:36:36;101488.45;;;23.98;40.66
40372;BME280;28564;53.346;-6.554;2022-07-17T07:39:03;101485.68;;;23.74;40.71
40372;BME280;28564;53.346;-6.554;2022-07-17T07:41:30;101473.91;;;23.92;40.70
40372;BME280;28564;53.346;-6.554;2022-07-17T07:43:57;101489.13;;;23.67;40.95
40372;BME280;28564;53.346;-6.554;2022-07-17T07:46:24;101486.15;;;23.94;41.06
40372;BME280;28564;53.346;-6.554;2022-07-17T07:48:51;101489.40;;;23.95;41.24
40372;BME280;28564;53.346;-6.554;2022-07-17T07:51:18;101481.24;;;23.95;41.31
40372;BME280;28564;53.346;-6.554;2022-07-17T07:53:45;101489.85;;;23.98;41.35
40372;BME280;28564;53.346;-6.554;2022-07-17T07:56:13;101493.59;;;23.81;41.04
40372;BME280;28564;53.346;-6.554;2022-07-17T07:58:40;101484.59;;;24.07;41.04
40372;BME280;28564;53.346;-6.554;2022-07-17T08:01:07;101476.87;;;24.13;41.01
40372;BME280;28564;53.346;-6.554;2022-07-17T08:03:35;101476.08;;;24.19;41.03
40372;BME280;28564;53.346;-6.554;2022-07-17T08:06:03;101473.17;;;24.27;40.96
40372;BME280;28564;53.346;-6.554;2022-07-17T08:08:30;101465.39;;;24.63;40.93
40372;BME280;28564;53.346;-6.554;2022-07-17T08:10:58;101457.64;;;24.46;40.92
40372;BME280;28564;53.346;-6.554;2022-07-17T08:13:25;101451.94;;;24.58;40.81
40372;BME280;28564;53.346;-6.554;2022-07-17T08:15:52;101449.98;;;24.65;40.70
40372;BME280;28564;53.346;-6.554;2022-07-17T08:18:19;101447.95;;;24.24;40.65
40372;BME280;28564;53.346;-6.554;2022-07-17T08:20:46;101445.77;;;24.33;40.21
40372;BME280;28564;53.346;-6.554;2022-07-17T08:23:13;101434.82;;;24.47;40.22
40372;BME280;28564;53.346;-6.554;2022-07-17T08:25:41;101427.27;;;24.82;40.00
40372;BME280;28564;53.346;-6.554;2022-07-17T08:28:08;101425.31;;;24.76;39.90
40372;BME280;28564;53.346;-6.554;2022-07-17T08:30:35;101418.45;;;24.82;39.61
40372;BME280;28564;53.346;-6.554;2022-07-17T08:33:03;101416.87;;;24.85;39.44
40372;BME280;28564;53.346;-6.554;2022-07-17T08:35:31;101416.57;;;24.82;38.44
40372;BME280;28564;53.346;-6.554;2022-07-17T08:37:59;101409.81;;;24.82;38.71
40372;BME280;28564;53.346;-6.554;2022-07-17T08:40:28;101405.33;;;25.17;38.61
40372;BME280;28564;53.346;-6.554;2022-07-17T08:42:56;101405.32;;;25.16;38.88
40372;BME280;28564;53.346;-6.554;2022-07-17T08:45:25;101405.07;;;25.40;38.99
40372;BME280;28564;53.346;-6.554;2022-07-17T08:47:54;101394.55;;;25.63;38.74
40372;BME280;28564;53.346;-6.554;2022-07-17T08:50:24;101396.17;;;25.79;38.21
40372;BME280;28564;53.346;-6.554;2022-07-17T08:52:52;101394.29;;;25.92;38.22
40372;BME280;28564;53.346;-6.554;2022-07-17T08:55:20;101392.58;;;25.85;37.65
40372;BME280;28564;53.346;-6.554;2022-07-17T08:57:48;101381.42;;;25.96;37.62
40372;BME280;28564;53.346;-6.554;2022-07-17T09:03:56;101375.70;;;26.57;36.03
40372;BME280;28564;53.346;-6.554;2022-07-17T09:06:24;101374.43;;;26.81;35.34
40372;BME280;28564;53.346;-6.554;2022-07-17T09:09:03;101371.37;;;26.72;34.63
40372;BME280;28564;53.346;-6.554;2022-07-17T09:11:41;101371.40;;;26.95;34.38
40372;BME280;28564;53.346;-6.554;2022-07-17T09:14:09;101371.98;;;27.15;33.33
40372;BME280;28564;53.346;-6.554;2022-07-17T09:16:36;101368.19;;;27.28;32.70
40372;BME280;28564;53.346;-6.554;2022-07-17T09:19:24;101363.88;;;27.47;32.86
40372;BME280;28564;53.346;-6.554;2022-07-17T09:21:51;101360.67;;;27.77;31.30
40372;BME280;28564;53.346;-6.554;2022-07-17T09:24:18;101360.21;;;28.02;29.06
40372;BME280;28564;53.346;-6.554;2022-07-17T09:26:45;101359.64;;;28.04;28.16
40372;BME280;28564;53.346;-6.554;2022-07-17T09:29:12;101361.87;;;28.20;27.07
40372;BME280;28564;53.346;-6.554;2022-07-17T09:31:39;101362.03;;;28.05;27.18
40372;BME280;28564;53.346;-6.554;2022-07-17T09:34:16;101359.93;;;28.12;27.03
40372;BME280;28564;53.346;-6.554;2022-07-17T09:36:43;101367.66;;;28.08;26.90
40372;BME280;28564;53.346;-6.554;2022-07-17T09:39:10;101364.45;;;28.35;26.66
40372;BME280;28564;53.346;-6.554;2022-07-17T09:41:38;101366.19;;;28.10;27.03
40372;BME280;28564;53.346;-6.554;2022-07-17T09:44:06;101365.64;;;28.10;27.02
40372;BME280;28564;53.346;-6.554;2022-07-17T09:46:34;101362.33;;;28.05;27.47
40372;BME280;28564;53.346;-6.554;2022-07-17T09:49:04;101361.32;;;28.38;28.09
40372;BME280;28564;53.346;-6.554;2022-07-17T09:51:34;101358.18;;;28.47;27.68
40372;BME280;28564;53.346;-6.554;2022-07-17T09:54:03;101356.67;;;28.35;28.08
40372;BME280;28564;53.346;-6.554;2022-07-17T09:56:34;101355.09;;;28.58;27.78
40372;BME280;28564;53.346;-6.554;2022-07-17T09:59:03;101351.87;;;28.62;28.00
40372;BME280;28564;53.346;-6.554;2022-07-17T10:01:33;101351.56;;;28.74;28.22
40372;BME280;28564;53.346;-6.554;2022-07-17T10:04:01;101348.07;;;28.75;28.37
40372;BME280;28564;53.346;-6.554;2022-07-17T10:06:28;101348.36;;;28.54;28.13
40372;BME280;28564;53.346;-6.554;2022-07-17T10:08:55;101346.88;;;28.62;28.48
40372;BME280;28564;53.346;-6.554;2022-07-17T10:11:24;101348.28;;;29.03;28.34
40372;BME280;28564;53.346;-6.554;2022-07-17T10:13:54;101352.66;;;29.19;28.65
40372;BME280;28564;53.346;-6.554;2022-07-17T10:16:24;101351.66;;;28.88;28.10
40372;BME280;28564;53.346;-6.554;2022-07-17T10:18:51;101352.58;;;29.34;28.16
40372;BME280;28564;53.346;-6.554;2022-07-17T10:21:19;101347.21;;;29.18;28.21
40372;BME280;28564;53.346;-6.554;2022-07-17T10:24:05;101342.98;;;29.02;28.30
40372;BME280;28564;53.346;-6.554;2022-07-17T10:26:33;101333.57;;;29.60;28.56
40372;BME280;28564;53.346;-6.554;2022-07-17T10:29:00;101330.38;;;29.70;28.35
40372;BME280;28564;53.346;-6.554;2022-07-17T10:31:30;101329.79;;;29.43;28.33
40372;BME280;28564;53.346;-6.554;2022-07-17T10:33:58;101331.65;;;30.04;28.32
40372;BME280;28564;53.346;-6.554;2022-07-17T10:36:33;101328.57;;;29.78;28.04
40372;BME280;28564;53.346;-6.554;2022-07-17T10:39:11;101327.44;;;29.88;28.29
40372;BME280;28564;53.346;-6.554;2022-07-17T10:41:38;101330.77;;;29.97;28.18
40372;BME280;28564;53.346;-6.554;2022-07-17T10:44:06;101332.06;;;30.06;28.18
40372;BME280;28564;53.346;-6.554;2022-07-17T10:46:34;101329.06;;;29.92;28.03
40372;BME280;28564;53.346;-6.554;2022-07-17T10:49:02;101325.11;;;30.37;27.79
40372;BME280;28564;53.346;-6.554;2022-07-17T10:51:30;101324.62;;;30.07;28.10
40372;BME280;28564;53.346;-6.554;2022-07-17T10:53:58;101318.40;;;30.53;27.90
40372;BME280;28564;53.346;-6.554;2022-07-17T10:56:26;101319.24;;;30.61;28.20
40372;BME280;28564;53.346;-6.554;2022-07-17T10:59:01;101323.32;;;30.99;27.89
40372;BME280;28564;53.346;-6.554;2022-07-17T11:01:29;101322.67;;;30.92;27.45
40372;BME280;28564;53.346;-6.554;2022-07-17T11:03:58;101321.64;;;31.25;27.49
40372;BME280;28564;53.346;-6.554;2022-07-17T11:06:27;101319.46;;;31.35;27.87
40372;BME280;28564;53.346;-6.554;2022-07-17T11:08:56;101317.65;;;31.24;27.53
40372;BME280;28564;53.346;-6.554;2022-07-17T11:11:36;101309.78;;;31.65;27.13
40372;BME280;28564;53.346;-6.554;2022-07-17T11:14:08;101307.58;;;31.24;27.37
40372;BME280;28564;53.346;-6.554;2022-07-17T11:16:35;101308.92;;;31.70;27.21
40372;BME280;28564;53.346;-6.554;2022-07-17T11:19:03;101304.28;;;31.67;26.89
40372;BME280;28564;53.346;-6.554;2022-07-17T11:21:31;101308.41;;;31.91;27.22
40372;BME280;28564;53.346;-6.554;2022-07-17T11:23:58;101303.48;;;32.10;27.17
40372;BME280;28564;53.346;-6.554;2022-07-17T11:26:25;101297.02;;;32.27;26.95
40372;BME280;28564;53.346;-6.554;2022-07-17T11:28:52;101297.03;;;32.23;26.79
40372;BME280;28564;53.346;-6.554;2022-07-17T11:31:21;101295.23;;;32.26;27.08
40372;BME280;28564;53.346;-6.554;2022-07-17T11:33:51;101294.65;;;32.35;26.90
40372;BME280;28564;53.346;-6.554;2022-07-17T11:36:21;101295.31;;;32.54;26.82
40372;BME280;28564;53.346;-6.554;2022-07-17T11:38:49;101292.23;;;32.59;27.16
40372;BME280;28564;53.346;-6.554;2022-07-17T11:41:17;101286.09;;;32.55;27.04
40372;BME280;28564;53.346;-6.554;2022-07-17T11:43:44;101289.13;;;32.81;26.89
40372;BME280;28564;53.346;-6.554;2022-07-17T11:46:12;101286.49;;;32.91;26.87
40372;BME280;28564;53.346;-6.554;2022-07-17T11:48:41;101286.79;;;33.06;26.98
40372;BME280;28564;53.346;-6.554;2022-07-17T11:51:09;101283.86;;;32.71;26.76
40372;BME280;28564;53.346;-6.554;2022-07-17T11:53:38;101283.52;;;32.90;26.54
40372;BME280;28564;53.346;-6.554;2022-07-17T11:56:07;101286.37;;;32.94;26.45
40372;BME280;28564;53.346;-6.554;2022-07-17T11:58:44;101282.29;;;32.97;26.32
40372;BME280;28564;53.346;-6.554;2022-07-17T12:01:12;101279.64;;;33.05;26.54
40372;BME280;28564;53.346;-6.554;2022-07-17T12:03:40;101274.15;;;32.76;26.43
40372;BME280;28564;53.346;-6.554;2022-07-17T12:06:07;101267.50;;;33.35;26.50
40372;BME280;28564;53.346;-6.554;2022-07-17T12:08:36;101268.19;;;33.53;26.54
40372;BME280;28564;53.346;-6.554;2022-07-17T12:11:05;101262.83;;;33.64;26.80
40372;BME280;28564;53.346;-6.554;2022-07-17T12:13:41;101261.72;;;33.82;26.81
40372;BME280;28564;53.346;-6.554;2022-07-17T12:16:26;101257.98;;;33.58;26.46
40372;BME280;28564;53.346;-6.554;2022-07-17T12:18:58;101260.83;;;33.70;26.41
40372;BME280;28564;53.346;-6.554;2022-07-17T12:21:27;101257.69;;;33.88;26.33
40372;BME280;28564;53.346;-6.554;2022-07-17T12:23:59;101262.09;;;34.17;26.25
40372;BME280;28564;53.346;-6.554;2022-07-17T12:26:28;101261.17;;;34.03;26.21
40372;BME280;28564;53.346;-6.554;2022-07-17T12:28:57;101257.69;;;34.07;26.05
40372;BME280;28564;53.346;-6.554;2022-07-17T12:31:25;101254.26;;;34.24;25.99
40372;BME280;28564;53.346;-6.554;2022-07-17T12:33:53;101250.73;;;34.12;26.21
40372;BME280;28564;53.346;-6.554;2022-07-17T12:36:21;101246.76;;;34.16;26.26
40372;BME280;28564;53.346;-6.554;2022-07-17T12:38:50;101243.23;;;34.60;25.99
40372;BME280;28564;53.346;-6.554;2022-07-17T12:41:17;101240.04;;;34.38;25.64
40372;BME280;28564;53.346;-6.554;2022-07-17T12:43:44;101241.45;;;34.43;25.77
40372;BME280;28564;53.346;-6.554;2022-07-17T12:46:12;101237.18;;;34.69;25.38
40372;BME280;28564;53.346;-6.554;2022-07-17T12:48:40;101232.72;;;34.54;25.63